Time;durP1;ratioP1;P1;durP2;ratioP2;P2;SDS_P1;SDS_P2;PMS_P1;PMS_P2;Temp;Humidity;BMP_temperature;BMP_pressure;BME280_temperature;BME280_humidity;BME280_pressure;Samples;Min_cycle;Max_cycle;Signal;HPM_P1;HPM_P2
2022/06/17 00:00:20;;;;;;;;;;;;;;;17.13;96.93;102389.91;5041163;28;20437;-36
2022/06/17 00:02:48;;;;;;;;;;;;;;;17.14;97.24;102383.13;5043523;28;19971;-29
2022/06/17 00:05:16;;;;;;;;;;;;;;;17.15;97.00;102387.63;5045147;28;20549;-29
2022/06/17 00:07:45;;;;;;;;;;;;;;;17.16;98.21;102385.66;5038814;28;19925;-30
2022/06/17 00:10:18;;;;;;;;;;;;;;;17.16;97.51;102372.38;5041198;28;19925;-33
2022/06/17 00:12:45;;;;;;;;;;;;;;;17.16;98.47;102372.38;5038953;28;19936;-27
2022/06/17 00:15:13;;;;;;;;;;;;;;;17.17;97.86;102373.22;5038344;28;20023;-27
2022/06/17 00:17:42;;;;;;;;;;;;;;;17.16;97.17;102372.38;5038053;28;19939;-31
2022/06/17 00:20:12;;;;;;;;;;;;;;;17.16;98.04;102380.84;5041229;28;20114;-33
2022/06/17 00:22:41;;;;;;;;;;;;;;;17.17;99.09;102381.69;5038516;28;19925;-29
2022/06/17 00:25:16;;;;;;;;;;;;;;;17.16;99.05;102371.53;5039428;28;19925;-30
2022/06/17 00:27:43;;;;;;;;;;;;;;;17.17;98.78;102376.88;5038380;28;20324;-29
2022/06/17 00:30:15;;;;;;;;;;;;;;;17.17;98.45;102376.88;5032578;28;19959;-34
2022/06/17 00:32:43;;;;;;;;;;;;;;;17.17;98.95;102370.41;5038713;28;19925;-34
2022/06/17 00:35:11;;;;;;;;;;;;;;;17.17;98.97;102370.41;5038904;28;19928;-32
2022/06/17 00:37:38;;;;;;;;;;;;;;;17.17;98.86;102379.69;5038007;28;19925;-32
2022/06/17 00:40:11;;;;;;;;;;;;;;;17.17;98.99;102370.41;5039935;28;20448;-29
2022/06/17 00:42:40;;;;;;;;;;;;;;;17.16;99.15;102368.72;5043828;28;19931;-29
2022/06/17 00:45:12;;;;;;;;;;;;;;;17.16;99.26;102372.38;5037757;28;19936;-33
2022/06/17 00:47:43;;;;;;;;;;;;;;;17.18;99.11;102374.91;5038577;28;20359;-33
2022/06/17 00:50:15;;;;;;;;;;;;;;;17.18;98.92;102378.56;5037772;28;19935;-29
2022/06/17 00:52:47;;;;;;;;;;;;;;;17.18;99.01;102378.56;5036199;28;19983;-34
2022/06/17 00:55:18;;;;;;;;;;;;;;;17.18;99.92;102375.75;5043480;28;19982;-29
2022/06/17 00:57:47;;;;;;;;;;;;;;;17.17;99.37;102364.75;5043385;28;20369;-30
2022/06/17 01:00:17;;;;;;;;;;;;;;;17.16;99.44;102360.25;5042836;28;20403;-36
2022/06/17 01:02:47;;;;;;;;;;;;;;;17.12;100.00;102350.72;5042261;28;20305;-30
2022/06/17 01:05:15;;;;;;;;;;;;;;;17.09;100.00;102349.34;5037846;28;19925;-29
2022/06/17 01:07:45;;;;;;;;;;;;;;;17.06;100.00;102351.94;5039786;28;20020;-31
2022/06/17 01:10:13;;;;;;;;;;;;;;;17.04;100.00;102352.25;5036602;28;19925;-33
2022/06/17 01:12:45;;;;;;;;;;;;;;;17.03;100.00;102355.38;5039112;28;19929;-35
2022/06/17 01:15:16;;;;;;;;;;;;;;;17.02;100.00;102351.72;5034857;28;20370;-33
2022/06/17 01:17:48;;;;;;;;;;;;;;;17.01;100.00;102349.19;5055824;28;20271;-34
2022/06/17 01:20:18;;;;;;;;;;;;;;;17.00;100.00;102347.53;5041038;28;19929;-33
2022/06/17 01:22:49;;;;;;;;;;;;;;;16.98;100.00;102353.50;5058070;28;19929;-29
2022/06/17 01:25:20;;;;;;;;;;;;;;;16.95;100.00;102342.00;5043281;28;19964;-32
2022/06/17 01:27:50;;;;;;;;;;;;;;;16.91;100.00;102332.47;5039873;28;19929;-32
2022/06/17 01:30:20;;;;;;;;;;;;;;;16.86;100.00;102330.56;5042004;28;19924;-29
2022/06/17 01:32:49;;;;;;;;;;;;;;;16.83;100.00;102332.00;5040213;28;20382;-32
2022/06/17 01:35:18;;;;;;;;;;;;;;;16.79;100.00;102328.09;5042618;28;19929;-29
2022/06/17 01:37:48;;;;;;;;;;;;;;;16.77;100.00;102326.75;5040303;28;19937;-29
2022/06/17 01:40:17;;;;;;;;;;;;;;;16.74;100.00;102336.66;5042834;28;19926;-32
2022/06/17 01:42:45;;;;;;;;;;;;;;;16.73;100.00;102334.16;5040314;28;20013;-36
2022/06/17 01:45:13;;;;;;;;;;;;;;;16.73;100.00;102343.44;5042896;28;19933;-37
2022/06/17 01:47:43;;;;;;;;;;;;;;;16.73;100.00;102351.06;5057436;28;19960;-28
2022/06/17 01:50:12;;;;;;;;;;;;;;;16.73;100.00;102331.31;5036436;28;19933;-33
2022/06/17 01:52:42;;;;;;;;;;;;;;;16.73;100.00;102337.81;5037462;28;19924;-31
2022/06/17 01:55:14;;;;;;;;;;;;;;;16.72;100.00;102340.94;5035792;28;19925;-30
2022/06/17 01:57:45;;;;;;;;;;;;;;;16.72;100.00;102353.03;5057245;28;20421;-39
2022/06/17 02:00:17;;;;;;;;;;;;;;;16.71;100.00;102357.00;5064111;28;19924;-28
2022/06/17 02:02:48;;;;;;;;;;;;;;;16.71;100.00;102356.16;5039251;28;19959;-30
2022/06/17 02:05:16;;;;;;;;;;;;;;;16.71;100.00;102353.34;5035299;28;20028;-29
2022/06/17 02:07:47;;;;;;;;;;;;;;;16.71;100.00;102342.91;5044636;28;19933;-36
2022/06/17 02:10:16;;;;;;;;;;;;;;;16.70;100.00;102355.31;5044481;28;19925;-32
2022/06/17 02:12:45;;;;;;;;;;;;;;;16.68;100.00;102360.44;5045112;28;20282;-37
2022/06/17 02:15:13;;;;;;;;;;;;;;;16.66;100.00;102354.25;5045975;28;19939;-34
2022/06/17 02:18:00;;;;;;;;;;;;;;;16.64;100.00;102356.53;5046604;28;19936;-29
2022/06/17 02:20:41;;;;;;;;;;;;;;;16.62;100.00;102357.94;5045130;28;19928;-32
2022/06/17 02:23:09;;;;;;;;;;;;;;;16.59;100.00;102352.91;5045732;28;19956;-32
2022/06/17 02:25:40;;;;;;;;;;;;;;;16.55;100.00;102349.88;5044554;28;19933;-30
2022/06/17 02:28:11;;;;;;;;;;;;;;;16.51;100.00;102344.00;5044723;28;20279;-38
2022/06/17 02:30:41;;;;;;;;;;;;;;;16.47;100.00;102337.28;5044053;28;19924;-30
2022/06/17 02:33:10;;;;;;;;;;;;;;;16.43;100.00;102336.22;5046205;28;20019;-29
2022/06/17 02:35:39;;;;;;;;;;;;;;;16.40;100.00;102339.63;5041695;28;19982;-32
2022/06/17 02:38:07;;;;;;;;;;;;;;;16.38;100.00;102341.94;5045468;28;20266;-34
2022/06/17 02:40:36;;;;;;;;;;;;;;;16.35;100.00;102348.19;5041788;28;20019;-29
2022/06/17 02:43:07;;;;;;;;;;;;;;;16.34;100.00;102342.84;5045425;28;20015;-29
2022/06/17 02:45:40;;;;;;;;;;;;;;;16.31;100.00;102338.66;5041457;28;19979;-30
2022/06/17 02:48:15;;;;;;;;;;;;;;;16.28;100.00;102335.59;5044254;28;20328;-29
2022/06/17 02:50:42;;;;;;;;;;;;;;;16.27;100.00;102333.91;5042461;28;19925;-30
2022/06/17 02:53:10;;;;;;;;;;;;;;;16.26;100.00;102332.22;5044164;28;19968;-31
2022/06/17 02:55:40;;;;;;;;;;;;;;;16.25;100.00;102330.56;5042095;28;19932;-30
2022/06/17 02:58:13;;;;;;;;;;;;;;;16.24;100.00;102329.72;5042809;28;19932;-37
2022/06/17 03:00:41;;;;;;;;;;;;;;;16.25;100.00;102322.09;5039562;28;20184;-33
2022/06/17 03:03:11;;;;;;;;;;;;;;;16.25;100.00;102330.56;5041378;28;20355;-34
2022/06/17 03:05:42;;;;;;;;;;;;;;;16.27;100.00;102328.28;5032580;28;19929;-32
2022/06/17 03:08:17;;;;;;;;;;;;;;;16.29;100.00;102324.03;5043711;28;20378;-30
2022/06/17 03:10:45;;;;;;;;;;;;;;;16.31;100.00;102329.34;5042095;28;19929;-33
2022/06/17 03:13:17;;;;;;;;;;;;;;;16.33;100.00;102321.44;5042644;28;19935;-30
2022/06/17 03:15:47;;;;;;;;;;;;;;;16.36;100.00;102315.22;5040061;28;20390;-35
2022/06/17 03:18:16;;;;;;;;;;;;;;;16.37;100.00;102319.72;5038212;28;19952;-29
2022/06/17 03:20:46;;;;;;;;;;;;;;;16.39;100.00;102311.75;5037848;28;19929;-39
2022/06/17 03:23:16;;;;;;;;;;;;;;;16.39;100.00;102309.78;5044785;28;19975;-34
2022/06/17 03:25:50;;;;;;;;;;;;;;;16.43;100.00;102318.47;5059289;28;20027;-34
2022/06/17 03:28:21;;;;;;;;;;;;;;;16.45;100.00;102310.56;5043580;28;19941;-36
2022/06/17 03:30:51;;;;;;;;;;;;;;;16.48;100.00;102301.50;5042194;28;20089;-37
2022/06/17 03:33:21;;;;;;;;;;;;;;;16.51;100.00;102315.81;5044226;28;19925;-30
2022/06/17 03:35:54;;;;;;;;;;;;;;;16.54;100.00;102328.47;5039199;28;19935;-30
2022/06/17 03:38:26;;;;;;;;;;;;;;;16.57;100.00;102324.22;5038256;28;19929;-29
2022/06/17 03:40:56;;;;;;;;;;;;;;;16.58;100.00;102323.91;5037842;28;19929;-29
2022/06/17 03:43:29;;;;;;;;;;;;;;;16.61;100.00;102331.72;5038007;28;20350;-29
2022/06/17 03:46:01;;;;;;;;;;;;;;;16.64;100.00;102339.63;5038166;28;19931;-30
2022/06/17 03:48:34;;;;;;;;;;;;;;;16.66;100.00;102340.16;5037467;28;20009;-30
2022/06/17 03:51:02;;;;;;;;;;;;;;;16.69;100.00;102336.72;5038128;28;20343;-36
2022/06/17 03:53:34;;;;;;;;;;;;;;;16.71;100.00;102330.78;5038220;28;19925;-31
2022/06/17 03:56:04;;;;;;;;;;;;;;;16.74;100.00;102335.81;5043664;28;19924;-28
2022/06/17 03:58:37;;;;;;;;;;;;;;;16.74;100.00;102331.03;5041788;28;19925;-27
2022/06/17 04:01:12;;;;;;;;;;;;;;;16.76;100.00;102330.72;5042577;28;19925;-30
2022/06/17 04:03:41;;;;;;;;;;;;;;;16.78;100.00;102323.63;5036971;28;20020;-29
2022/06/17 04:06:10;;;;;;;;;;;;;;;16.80;100.00;102332.59;5057859;28;19974;-29
2022/06/17 04:08:53;;;;;;;;;;;;;;;16.82;100.00;102316.22;5045542;28;20016;-30
2022/06/17 04:11:22;;;;;;;;;;;;;;;16.83;100.00;102326.34;5042811;28;19924;-29
2022/06/17 04:13:53;;;;;;;;;;;;;;;16.85;100.00;102321.25;5036571;28;19926;-29
2022/06/17 04:16:26;;;;;;;;;;;;;;;16.87;100.00;102321.78;5036922;28;19933;-36
2022/06/17 04:19:01;;;;;;;;;;;;;;;16.90;100.00;102325.16;5040094;28;19936;-29
2022/06/17 04:21:29;;;;;;;;;;;;;;;16.94;100.00;102314.94;5037489;28;20370;-33
2022/06/17 04:23:58;;;;;;;;;;;;;;;16.97;100.00;102319.97;5045304;28;19929;-29
2022/06/17 04:26:50;;;;;;;;;;;;;;;17.01;100.00;102306.91;5043272;28;19931;-29
2022/06/17 04:29:21;;;;;;;;;;;;;;;17.04;100.00;102306.28;5055549;28;20012;-33
2022/06/17 04:31:59;;;;;;;;;;;;;;;17.07;100.00;102308.50;5036620;28;20020;-34
2022/06/17 04:34:27;;;;;;;;;;;;;;;17.11;100.00;102309.56;5040697;28;20019;-30
2022/06/17 04:37:00;;;;;;;;;;;;;;;17.14;100.00;102308.94;5052407;28;20492;-37
2022/06/17 04:39:36;;;;;;;;;;;;;;;17.21;100.00;102303.72;5055231;28;20016;-30
2022/06/17 04:42:21;;;;;;;;;;;;;;;17.27;100.00;102304.50;5036338;28;20166;-29
2022/06/17 04:44:51;;;;;;;;;;;;;;;17.32;100.00;102299.59;5039766;28;19970;-27
2022/06/17 04:47:21;;;;;;;;;;;;;;;17.37;100.00;102305.16;5052621;28;20374;-33
2022/06/17 04:50:00;;;;;;;;;;;;;;;17.43;100.00;102301.06;5045813;28;20443;-31
2022/06/17 04:52:34;;;;;;;;;;;;;;;17.49;100.00;102293.34;5054572;28;20019;-32
2022/06/17 04:55:23;;;;;;;;;;;;;;;17.55;100.00;102300.59;5034104;28;19936;-31
2022/06/17 04:57:59;;;;;;;;;;;;;;;17.61;100.00;102298.47;5035718;28;19932;-29
2022/06/17 05:00:29;;;;;;;;;;;;;;;17.66;100.00;102287.13;5038671;28;19929;-34
2022/06/17 05:03:00;;;;;;;;;;;;;;;17.72;100.00;102283.06;5035901;28;19929;-31
2022/06/17 05:05:40;;;;;;;;;;;;;;;17.77;100.00;102282.97;5037932;28;19932;-30
2022/06/17 05:08:11;;;;;;;;;;;;;;;17.84;100.00;102283.38;5042435;28;19925;-39
2022/06/17 05:10:45;;;;;;;;;;;;;;;17.90;100.00;102285.78;5038077;28;20011;-29
2022/06/17 05:13:15;;;;;;;;;;;;;;;17.96;100.00;102280.03;5040214;28;19936;-29
2022/06/17 05:15:44;;;;;;;;;;;;;;;18.01;99.19;102274.25;5037829;28;20041;-37
2022/06/17 05:18:12;;;;;;;;;;;;;;;18.05;98.55;102273.31;5037475;28;19929;-35
2022/06/17 05:20:42;;;;;;;;;;;;;;;18.07;98.31;102271.00;5038075;28;19948;-30
2022/06/17 05:23:11;;;;;;;;;;;;;;;18.12;97.64;102268.09;5037126;28;19964;-33
2022/06/17 05:25:43;;;;;;;;;;;;;;;18.17;97.45;102270.81;5037685;28;20501;-32
2022/06/17 05:28:13;;;;;;;;;;;;;;;18.22;96.71;102269.84;5035506;28;19982;-31
2022/06/17 05:30:46;;;;;;;;;;;;;;;18.27;95.98;102271.72;5030994;28;19952;-31
2022/06/17 05:33:21;;;;;;;;;;;;;;;18.31;95.51;102272.75;5041766;28;19932;-31
2022/06/17 05:35:49;;;;;;;;;;;;;;;18.37;94.85;102275.16;5037680;28;19929;-33
2022/06/17 05:38:17;;;;;;;;;;;;;;;18.42;94.19;102277.84;5044499;28;19982;-34
2022/06/17 05:40:45;;;;;;;;;;;;;;;18.48;94.08;102270.94;5040711;28;19963;-35
2022/06/17 05:43:13;;;;;;;;;;;;;;;18.54;93.44;102271.66;5039088;28;19999;-34
2022/06/17 05:45:43;;;;;;;;;;;;;;;18.59;92.90;102265.91;5055901;28;19936;-39
2022/06/17 05:48:30;;;;;;;;;;;;;;;18.66;92.60;102271.13;5040139;28;19931;-29
2022/06/17 05:51:16;;;;;;;;;;;;;;;18.72;92.07;102262.19;5043169;28;19940;-28
2022/06/17 05:54:02;;;;;;;;;;;;;;;18.79;91.39;102258.91;5038159;28;20337;-28
2022/06/17 05:56:49;;;;;;;;;;;;;;;18.85;90.82;102255.63;5043056;28;19951;-33
2022/06/17 05:59:17;;;;;;;;;;;;;;;18.89;90.04;102248.19;5042790;28;19925;-31
2022/06/17 06:01:47;;;;;;;;;;;;;;;18.93;89.79;102252.06;5040738;28;19933;-25
2022/06/17 06:04:28;;;;;;;;;;;;;;;18.99;88.95;102251.88;5043652;28;20008;-33
2022/06/17 06:06:56;;;;;;;;;;;;;;;19.04;89.23;102255.44;5043880;28;19924;-32
2022/06/17 06:09:25;;;;;;;;;;;;;;;19.11;88.14;102255.81;5044156;28;19933;-27
2022/06/17 06:11:53;;;;;;;;;;;;;;;19.17;87.19;102248.88;5041578;28;19929;-28
2022/06/17 06:14:22;;;;;;;;;;;;;;;19.25;87.38;102250.06;5036457;28;19943;-28
2022/06/17 06:16:51;;;;;;;;;;;;;;;19.33;86.41;102254.13;5042094;28;19925;-28
2022/06/17 06:19:19;;;;;;;;;;;;;;;19.42;85.86;102255.81;5043600;28;19928;-28
2022/06/17 06:21:47;;;;;;;;;;;;;;;19.53;85.67;102250.75;5042845;28;19929;-30
2022/06/17 06:24:14;;;;;;;;;;;;;;;19.63;84.95;102258.13;5042299;28;19928;-28
2022/06/17 06:26:42;;;;;;;;;;;;;;;19.72;84.02;102259.00;5040898;28;19924;-29
2022/06/17 06:29:21;;;;;;;;;;;;;;;19.84;84.01;102259.19;5046830;28;20468;-29
2022/06/17 06:31:50;;;;;;;;;;;;;;;19.95;82.78;102263.41;5043604;28;20306;-32
2022/06/17 06:34:37;;;;;;;;;;;;;;;20.19;82.66;102254.44;5045037;28;19941;-32
2022/06/17 06:37:05;;;;;;;;;;;;;;;20.39;81.53;102262.34;5041809;28;20326;-29
2022/06/17 06:39:33;;;;;;;;;;;;;;;20.61;79.42;102262.19;5046978;28;20356;-32
2022/06/17 06:42:01;;;;;;;;;;;;;;;20.80;77.52;102255.34;5038896;28;20423;-37
2022/06/17 06:44:31;;;;;;;;;;;;;;;20.98;77.86;102257.84;5037880;28;19929;-33
2022/06/17 06:47:13;;;;;;;;;;;;;;;21.11;76.00;102247.47;5039717;28;19935;-29
2022/06/17 06:49:56;;;;;;;;;;;;;;;21.24;74.13;102257.00;5037722;28;19964;-39
2022/06/17 06:52:25;;;;;;;;;;;;;;;21.41;72.17;102254.09;5038967;28;19932;-34
2022/06/17 06:54:53;;;;;;;;;;;;;;;21.69;73.50;102253.66;5035746;28;19933;-37
2022/06/17 06:57:21;;;;;;;;;;;;;;;22.01;70.45;102250.19;5037457;28;19955;-30
2022/06/17 07:00:00;;;;;;;;;;;;;;;22.28;66.79;102251.69;5038158;28;19933;-30
2022/06/17 07:02:31;;;;;;;;;;;;;;;22.41;66.19;102255.44;5037593;28;19987;-29
2022/06/17 07:05:01;;;;;;;;;;;;;;;22.45;64.14;102254.41;5036840;28;19929;-29
2022/06/17 07:07:36;;;;;;;;;;;;;;;22.54;67.80;102255.19;5043376;28;19925;-36
2022/06/17 07:10:05;;;;;;;;;;;;;;;22.68;65.64;102266.28;5043221;28;19939;-28
2022/06/17 07:12:32;;;;;;;;;;;;;;;22.75;65.04;102268.56;5043726;28;20340;-30
2022/06/17 07:15:00;;;;;;;;;;;;;;;22.79;63.55;102270.38;5035524;28;19936;-31
2022/06/17 07:17:28;;;;;;;;;;;;;;;22.83;63.08;102273.38;5039081;28;19929;-31
2022/06/17 07:19:57;;;;;;;;;;;;;;;22.84;63.13;102273.03;5040732;28;19935;-33
2022/06/17 07:22:24;;;;;;;;;;;;;;;22.88;63.60;102268.31;5038821;28;20305;-30
2022/06/17 07:24:52;;;;;;;;;;;;;;;22.92;63.33;102269.28;5035376;28;19931;-31
2022/06/17 07:27:20;;;;;;;;;;;;;;;22.96;62.79;102263.72;5043446;28;19928;-38
2022/06/17 07:29:47;;;;;;;;;;;;;;;23.10;64.40;102258.53;5040967;28;19932;-31
2022/06/17 07:32:15;;;;;;;;;;;;;;;23.29;60.76;102255.16;5043849;28;19925;-31
2022/06/17 07:34:43;;;;;;;;;;;;;;;23.38;61.05;102265.25;5043808;28;19952;-34
2022/06/17 07:39:58;;;;;;;;;;;;;;;23.70;60.10;102257.88;5041999;28;19933;-29
2022/06/17 07:42:37;;;;;;;;;;;;;;;24.13;60.51;102262.16;5039499;28;19931;-29
2022/06/17 07:45:06;;;;;;;;;;;;;;;24.66;59.66;102265.88;5041884;28;19924;-31
2022/06/17 07:47:33;;;;;;;;;;;;;;;25.12;57.66;102269.31;5038035;28;20603;-30
2022/06/17 07:50:01;;;;;;;;;;;;;;;25.49;54.19;102273.63;5039895;28;19929;-29
2022/06/17 07:52:31;;;;;;;;;;;;;;;25.90;50.93;102271.44;5037998;28;20016;-29
2022/06/17 07:54:59;;;;;;;;;;;;;;;26.29;52.74;102267.53;5038312;28;20386;-30
2022/06/17 07:57:26;;;;;;;;;;;;;;;26.75;49.93;102273.50;5037682;28;19925;-29
2022/06/17 07:59:54;;;;;;;;;;;;;;;27.18;48.56;102271.56;5048628;28;19932;-30
2022/06/17 08:02:22;;;;;;;;;;;;;;;27.39;44.93;102269.91;5035337;28;19961;-36
2022/06/17 08:04:49;;;;;;;;;;;;;;;27.52;42.70;102270.59;5036818;28;19944;-31
2022/06/17 08:07:17;;;;;;;;;;;;;;;27.60;43.52;102262.94;5043665;28;20015;-29
2022/06/17 08:09:46;;;;;;;;;;;;;;;27.71;43.00;102270.56;5043918;28;19925;-30
2022/06/17 08:12:14;;;;;;;;;;;;;;;27.97;45.13;102277.56;5043683;28;20301;-32
2022/06/17 08:14:47;;;;;;;;;;;;;;;28.46;42.90;102275.47;5043325;28;19929;-33
2022/06/17 08:17:17;;;;;;;;;;;;;;;28.79;41.24;102268.94;5043222;28;20366;-30
2022/06/17 08:19:45;;;;;;;;;;;;;;;28.76;36.02;102275.50;5043532;28;20002;-36
2022/06/17 08:22:12;;;;;;;;;;;;;;;28.59;35.04;102266.63;5039507;28;19931;-31
2022/06/17 08:24:40;;;;;;;;;;;;;;;28.30;36.36;102274.00;5038749;28;19965;-38
2022/06/17 08:27:16;;;;;;;;;;;;;;;28.40;38.44;102279.06;5041004;28;19963;-30
2022/06/17 08:29:44;;;;;;;;;;;;;;;28.66;37.88;102270.44;5038023;28;19932;-35
2022/06/17 08:35:10;;;;;;;;;;;;;;;28.66;35.46;102278.22;5014158;28;19926;-30
2022/06/17 08:37:38;;;;;;;;;;;;;;;28.55;36.50;102280.13;5031003;28;19928;-36
2022/06/17 08:40:10;;;;;;;;;;;;;;;28.54;37.22;102276.41;5038323;28;20447;-34
2022/06/17 08:42:47;;;;;;;;;;;;;;;28.68;37.07;102281.53;5040600;28;20020;-36
2022/06/17 08:45:21;;;;;;;;;;;;;;;28.80;37.31;102273.50;5038470;28;20017;-30
2022/06/17 08:47:59;;;;;;;;;;;;;;;28.93;35.75;102271.22;5043400;28;19973;-30
2022/06/17 08:50:34;;;;;;;;;;;;;;;28.94;35.41;102264.25;5042985;28;20292;-34
2022/06/17 08:53:12;;;;;;;;;;;;;;;29.02;36.55;102270.91;5040568;28;20300;-30
2022/06/17 08:55:45;;;;;;;;;;;;;;;29.16;36.88;102258.78;5043252;28;19925;-30
2022/06/17 08:58:19;;;;;;;;;;;;;;;29.41;36.43;102259.88;5035642;28;19929;-31
2022/06/17 09:00:52;;;;;;;;;;;;;;;29.56;34.66;102246.50;5042773;28;20393;-36
2022/06/17 09:03:35;;;;;;;;;;;;;;;29.32;34.49;102248.69;5042805;28;19940;-31
2022/06/17 09:06:13;;;;;;;;;;;;;;;28.88;34.17;102245.72;5039150;28;19932;-31
2022/06/17 09:08:54;;;;;;;;;;;;;;;28.59;36.11;102258.81;5039944;28;19929;-33
2022/06/17 09:11:25;;;;;;;;;;;;;;;28.50;35.90;102266.09;5042381;28;19925;-32
2022/06/17 09:14:02;;;;;;;;;;;;;;;28.63;37.29;102276.13;5038949;28;20412;-31
2022/06/17 09:16:35;;;;;;;;;;;;;;;28.66;36.69;102289.72;5042137;28;19952;-33
2022/06/17 09:19:03;;;;;;;;;;;;;;;28.62;35.71;102274.47;5043898;28;19925;-32
2022/06/17 09:21:33;;;;;;;;;;;;;;;28.79;37.77;102268.13;5047578;28;19925;-29
2022/06/17 09:24:05;;;;;;;;;;;;;;;28.88;37.50;102257.19;5045488;28;19925;-31
2022/06/17 09:26:38;;;;;;;;;;;;;;;28.79;36.54;102256.63;5040864;28;19925;-33
2022/06/17 09:29:10;;;;;;;;;;;;;;;28.80;38.26;102252.56;5042652;28;19936;-31
2022/06/17 09:31:40;;;;;;;;;;;;;;;28.80;37.47;102259.16;5040503;28;19928;-34
2022/06/17 09:34:12;;;;;;;;;;;;;;;28.78;37.88;102266.47;5043268;28;19925;-30
2022/06/17 09:36:42;;;;;;;;;;;;;;;28.70;36.64;102270.47;5042342;28;19928;-32
2022/06/17 09:39:12;;;;;;;;;;;;;;;28.77;36.68;102264.84;5042753;28;19935;-30
2022/06/17 09:41:42;;;;;;;;;;;;;;;28.84;36.89;102253.44;5045706;28;20024;-30
2022/06/17 09:44:14;;;;;;;;;;;;;;;28.79;37.05;102263.19;5041622;28;19935;-34
2022/06/17 09:46:44;;;;;;;;;;;;;;;28.74;36.26;102254.94;5045046;28;20055;-32
2022/06/17 09:49:19;;;;;;;;;;;;;;;28.73;36.00;102256.16;5040817;28;20382;-34
2022/06/17 09:51:49;;;;;;;;;;;;;;;28.77;35.92;102259.09;5039966;28;19928;-32
2022/06/17 09:54:20;;;;;;;;;;;;;;;28.73;36.36;102250.41;5041948;28;20309;-30
2022/06/17 09:56:51;;;;;;;;;;;;;;;28.77;36.42;102241.84;5034944;28;19928;-30
2022/06/17 09:59:22;;;;;;;;;;;;;;;28.60;37.37;102240.38;5041294;28;19935;-30
2022/06/17 10:01:49;;;;;;;;;;;;;;;28.54;37.22;102247.69;5048851;28;19925;-32
2022/06/17 10:04:17;;;;;;;;;;;;;;;28.68;37.04;102241.31;5037404;28;19929;-33
2022/06/17 10:06:55;;;;;;;;;;;;;;;28.87;36.83;102234.59;5043931;28;20418;-29
2022/06/17 10:09:34;;;;;;;;;;;;;;;28.95;35.78;102231.44;5045544;28;19925;-28
2022/06/17 10:12:03;;;;;;;;;;;;;;;29.14;35.80;102230.41;5040064;28;20017;-32
2022/06/17 10:14:42;;;;;;;;;;;;;;;29.29;35.25;102237.97;5037610;28;20398;-29
2022/06/17 10:20:03;;;;;;;;;;;;;;;29.52;36.09;102226.31;5036176;28;19925;-29
2022/06/17 10:22:39;;;;;;;;;;;;;;;29.72;34.85;102221.97;5039739;28;19929;-31
2022/06/17 10:25:15;;;;;;;;;;;;;;;29.81;35.19;102210.94;5041341;28;19967;-30
2022/06/17 10:27:57;;;;;;;;;;;;;;;29.75;33.24;102212.53;5040396;28;19925;-35
2022/06/17 10:30:35;;;;;;;;;;;;;;;29.79;34.77;102216.25;5043017;28;20378;-30
2022/06/17 10:33:02;;;;;;;;;;;;;;;29.91;34.22;102209.38;5040700;28;19929;-26
2022/06/17 10:35:33;;;;;;;;;;;;;;;29.92;33.89;102210.19;5041368;28;20006;-38
2022/06/17 10:38:02;;;;;;;;;;;;;;;29.92;33.67;102198.69;5037565;28;20374;-30
2022/06/17 10:40:32;;;;;;;;;;;;;;;29.94;33.82;102188.44;5040501;28;20406;-40
2022/06/17 10:43:02;;;;;;;;;;;;;;;30.09;33.86;102198.00;5041249;28;20409;-30
2022/06/17 10:45:31;;;;;;;;;;;;;;;30.26;32.91;102194.41;5045643;28;19925;-34
2022/06/17 10:48:02;;;;;;;;;;;;;;;30.37;32.61;102194.50;5044869;28;19996;-30
2022/06/17 10:50:31;;;;;;;;;;;;;;;30.42;33.93;102188.31;5036943;28;19931;-41
2022/06/17 10:53:06;;;;;;;;;;;;;;;30.58;32.53;102185.94;5040139;28;19965;-31
2022/06/17 10:55:35;;;;;;;;;;;;;;;30.72;34.97;102179.44;5041076;28;19932;-30
2022/06/17 10:58:07;;;;;;;;;;;;;;;31.04;32.17;102186.09;5039729;28;19940;-30
2022/06/17 11:00:42;;;;;;;;;;;;;;;31.09;30.89;102176.25;5040006;28;20466;-33
2022/06/17 11:03:18;;;;;;;;;;;;;;;30.96;31.70;102180.75;5033685;28;19960;-34
2022/06/17 11:05:51;;;;;;;;;;;;;;;30.73;31.25;102172.44;5045382;28;19940;-38
2022/06/17 11:08:21;;;;;;;;;;;;;;;30.57;30.67;102166.22;5045167;28;19940;-30
2022/06/17 11:10:51;;;;;;;;;;;;;;;30.74;32.01;102159.69;5044810;28;19998;-39
2022/06/17 11:13:20;;;;;;;;;;;;;;;30.74;29.74;102146.09;5045478;28;19952;-30
2022/06/17 11:15:52;;;;;;;;;;;;;;;30.82;32.08;102135.38;5046646;28;19939;-31
2022/06/17 11:18:23;;;;;;;;;;;;;;;30.94;29.67;102143.69;5044119;28;19936;-37
2022/06/17 11:20:55;;;;;;;;;;;;;;;30.93;32.19;102138.31;5044481;28;19935;-30
2022/06/17 11:23:25;;;;;;;;;;;;;;;30.82;29.92;102132.50;5043376;28;19935;-30
2022/06/17 11:26:07;;;;;;;;;;;;;;;30.83;29.75;102139.94;5043712;28;19942;-33
2022/06/17 11:28:36;;;;;;;;;;;;;;;30.62;30.64;102145.63;5043113;28;19970;-36
2022/06/17 11:31:06;;;;;;;;;;;;;;;30.46;29.75;102143.91;5052335;28;19925;-30
2022/06/17 11:33:40;;;;;;;;;;;;;;;30.36;30.74;102138.09;5041954;28;20389;-34
2022/06/17 11:36:15;;;;;;;;;;;;;;;30.39;31.06;102145.91;5043686;28;19956;-30
2022/06/17 11:38:43;;;;;;;;;;;;;;;30.48;30.77;102141.44;5041498;28;20279;-28
2022/06/17 11:41:22;;;;;;;;;;;;;;;30.50;31.15;102144.75;5038844;28;20409;-28
2022/06/17 11:43:49;;;;;;;;;;;;;;;30.21;30.14;102145.00;5041147;28;19955;-28
2022/06/17 11:48:50;;;;;;;3.95;1.50;;;;;;;30.22;33.43;102135.97;5087529;27;20392;-28
2022/06/17 11:51:27;;;;;;;5.80;2.03;;;;;;;30.11;31.20;102141.69;5087831;28;20040;-28
2022/06/17 11:53:58;;;;;;;3.42;1.80;;;;;;;30.04;31.95;102143.69;5087244;28;20040;-31
2022/06/17 11:56:35;;;;;;;3.80;1.65;;;;;;;29.92;31.34;102135.38;5086841;28;20048;-27
2022/06/17 11:59:12;;;;;;;3.90;1.85;;;;;;;29.90;32.25;102132.06;5086587;28;20044;-27
2022/06/17 12:01:42;;;;;;;2.67;1.60;;;;;;;29.95;32.21;102128.81;5087456;28;20048;-30
2022/06/17 12:04:39;;;;;;;5.10;1.52;;;;;;;30.01;32.03;102132.97;5087298;28;20500;-34
2022/06/17 12:07:35;;;;;;;3.28;2.03;;;;;;;30.02;31.88;102123.09;5087083;28;20060;-27
2022/06/17 12:10:18;;;;;;;3.35;1.70;;;;;;;30.07;31.86;102126.44;5084801;28;20079;-27
2022/06/17 12:12:48;;;;;;;3.75;1.60;;;;;;;30.15;32.04;102122.38;5085894;28;20052;-33
2022/06/17 12:15:26;;;;;;;3.88;1.90;;;;;;;30.20;31.49;102121.13;5086620;28;20037;-32
2022/06/17 12:17:57;;;;;;;2.75;1.48;;;;;;;29.96;31.95;102121.81;5085009;28;20070;-30
2022/06/17 12:20:39;;;;;;;4.15;1.90;;;;;;;29.77;30.29;102108.56;5086723;28;20048;-34
2022/06/17 12:23:14;;;;;;;3.40;1.80;;;;;;;29.76;31.31;102109.78;5085783;28;20051;-28
2022/06/17 12:25:47;;;;;;;3.00;1.60;;;;;;;29.85;32.00;102106.53;5086671;28;20462;-36
2022/06/17 12:28:25;;;;;;;3.92;1.60;;;;;;;29.89;31.68;102105.31;5086251;28;20409;-33
2022/06/17 12:31:04;;;;;;;2.80;1.42;;;;;;;29.96;31.53;102095.91;5087132;28;20044;-28
2022/06/17 12:33:39;;;;;;;2.50;1.40;;;;;;;29.97;31.07;102092.63;5086847;28;20068;-28
2022/06/17 12:36:17;;;;;;;3.10;1.70;;;;;;;30.07;31.02;102093.94;5086129;28;20044;-30
2022/06/17 12:38:53;;;;;;;4.45;1.70;;;;;;;30.12;31.16;102082.88;5086707;28;20489;-30
2022/06/17 12:41:29;;;;;;;3.20;1.77;;;;;;;30.00;31.22;102091.00;5087131;28;20049;-27
2022/06/17 12:44:20;;;;;;;4.07;1.80;;;;;;;30.01;30.98;102075.38;5086780;28;20923;-27
2022/06/17 12:46:57;;;;;;;5.50;1.80;;;;;;;30.07;31.00;102073.78;5085634;28;20048;-31
2022/06/17 12:55:20;;;;;;;3.40;2.05;;;;;;;29.97;29.52;102069.59;5086608;28;20062;-28
2022/06/17 12:57:57;;;;;;;2.63;1.45;;;;;;;30.07;30.02;102071.72;5086530;28;20048;-28
2022/06/17 13:00:35;;;;;;;6.95;2.03;;;;;;;30.13;30.29;102060.66;5072792;28;20494;-29
2022/06/17 13:03:30;;;;;;;4.43;1.80;;;;;;;30.20;29.62;102069.31;5072488;28;20520;-33
2022/06/17 13:06:06;;;;;;;4.40;1.90;;;;;;;30.18;31.34;102060.25;5072636;28;20059;-27